Time;durP1;ratioP1;P1;durP2;ratioP2;P2;SDS_P1;SDS_P2;PMS_P1;PMS_P2;Temp;Humidity;BMP_temperature;BMP_pressure;BME280_temperature;BME280_humidity;BME280_pressure;Samples;Min_cycle;Max_cycle;Signal;HPM_P1;HPM_P2
2021/09/04 00:01:44;;;;;;;10.47;9.57;;;12.90;99.90;;;11.61;100.00;98099.31;4981571;28;20473;-79
2021/09/04 00:04:11;;;;;;;10.97;9.97;;;12.70;99.90;;;11.59;100.00;98111.38;4960032;28;20457;-79
2021/09/04 00:06:38;;;;;;;11.10;10.00;;;12.70;99.90;;;11.48;100.00;98091.28;4974040;28;20456;-79
2021/09/04 00:09:06;;;;;;;11.17;10.17;;;12.60;99.90;;;11.59;100.00;98112.19;4977849;28;20476;-79
2021/09/04 00:11:34;;;;;;;11.03;10.03;;;12.60;99.90;;;11.58;100.00;98115.97;4963150;28;20457;-80
2021/09/04 00:14:01;;;;;;;11.37;10.27;;;12.60;99.90;;;11.56;100.00;98109.94;4985395;28;20461;-79
2021/09/04 00:16:28;;;;;;;11.50;10.30;;;12.60;99.90;;;11.45;100.00;98102.56;4977008;28;20597;-80
2021/09/04 00:18:56;;;;;;;12.57;11.23;;;12.50;99.90;;;11.52;100.00;98111.44;4974694;28;20461;-79
2021/09/04 00:21:23;;;;;;;12.47;11.17;;;12.50;99.90;;;11.46;100.00;98112.31;4973750;28;20493;-80
2021/09/04 00:23:51;;;;;;;11.57;10.47;;;12.50;99.90;;;11.41;100.00;98106.72;4979522;28;20465;-79
2021/09/04 00:26:22;;;;;;;11.90;10.83;;;12.40;99.90;;;11.39;100.00;98108.81;4984866;28;20488;-77
2021/09/04 00:28:49;;;;;;;10.77;9.67;;;12.50;99.90;;;11.37;100.00;98105.50;4973375;28;20842;-78
2021/09/04 00:31:16;;;;;;;11.80;10.60;;;12.40;99.90;;;11.34;100.00;98102.19;4975315;28;20461;-77
2021/09/04 00:33:43;;;;;;;11.30;10.20;;;12.40;99.90;;;11.29;100.00;98096.59;4951477;28;20560;-78
2021/09/04 00:36:10;;;;;;;12.10;10.90;;;12.40;99.90;;;10.93;100.00;98044.00;4977026;28;20486;-78
2021/09/04 00:38:37;;;;;;;12.00;10.80;;;12.30;99.90;;;11.22;100.00;98093.13;4974064;28;20476;-78
2021/09/04 00:41:05;;;;;;;12.10;10.80;;;12.30;99.90;;;11.24;100.00;98096.44;4970329;28;20810;-78
2021/09/04 00:43:34;;;;;;;11.67;10.47;;;12.30;99.90;;;11.22;100.00;98093.13;4968248;28;20485;-78
2021/09/04 00:46:07;;;;;;;12.67;11.60;;;12.20;99.90;;;11.19;100.00;98088.16;4974240;28;20922;-78
2021/09/04 00:48:35;;;;;;;12.00;10.63;;;12.20;99.90;;;11.19;100.00;98080.03;4968418;28;20453;-78
2021/09/04 00:51:02;;;;;;;13.60;10.97;;;12.20;99.90;;;11.31;100.00;98091.81;4967102;28;20485;-78
2021/09/04 00:53:29;;;;;;;11.30;10.20;;;12.30;99.90;;;11.23;100.00;98059.63;4975149;28;20985;-78
2021/09/04 00:55:57;;;;;;;12.60;11.27;;;12.50;99.90;;;11.31;100.00;98072.03;4975390;28;20456;-78
2021/09/04 00:58:24;;;;;;;12.50;10.50;;;12.50;99.90;;;11.38;100.00;98094.47;4969983;28;20457;-78
2021/09/04 01:00:55;;;;;;;12.30;11.00;;;12.50;99.90;;;11.31;100.00;98104.50;4972296;28;21030;-78
2021/09/04 01:03:22;;;;;;;10.30;9.33;;;12.40;99.90;;;11.19;100.00;98104.38;4992146;28;20480;-78
2021/09/04 01:05:51;;;;;;;11.13;10.13;;;12.30;99.90;;;11.12;100.00;98101.72;4982660;28;20488;-79
2021/09/04 01:08:18;;;;;;;13.90;11.40;;;12.20;99.90;;;11.20;100.00;98109.53;4977739;28;20578;-79
2021/09/04 01:10:46;;;;;;;12.37;11.33;;;12.30;99.90;;;11.16;100.00;98096.69;4976369;28;20458;-79
2021/09/04 01:13:14;;;;;;;12.07;10.87;;;12.30;99.90;;;11.05;100.00;98101.75;4962528;28;20534;-79
2021/09/04 01:15:41;;;;;;;13.03;11.70;;;12.20;99.90;;;10.97;100.00;98104.69;4975339;28;20464;-79
2021/09/04 01:18:09;;;;;;;11.20;10.10;;;12.10;99.90;;;10.66;100.00;98041.44;4981511;28;20472;-79
2021/09/04 01:20:37;;;;;;;12.00;10.80;;;12.10;99.90;;;11.05;100.00;98092.78;4980293;28;20462;-79
2021/09/04 01:23:04;;;;;;;13.50;10.63;;;12.20;99.90;;;11.08;100.00;98088.84;4975991;28;20461;-79
2021/09/04 01:25:33;;;;;;;12.53;11.20;;;12.10;99.90;;;11.06;100.00;98097.16;4960000;28;20973;-79
2021/09/04 01:28:05;;;;;;;14.10;11.53;;;12.20;99.90;;;11.00;100.00;98096.16;4982242;28;20454;-79
2021/09/04 01:30:32;;;;;;;17.73;11.90;;;12.10;99.90;;;11.05;100.00;98096.34;4977319;28;20470;-79
2021/09/04 01:32:59;;;;;;;20.97;12.17;;;12.00;99.90;;;11.03;100.00;98095.72;4973547;28;20457;-79
2021/09/04 01:35:27;;;;;;;18.20;12.90;;;12.20;99.90;;;10.98;100.00;98094.72;4979951;28;20531;-79
2021/09/04 01:37:55;;;;;;;18.00;13.30;;;12.10;99.90;;;10.94;100.00;98094.31;4984212;28;20480;-78
2021/09/04 01:40:22;;;;;;;19.93;13.00;;;12.10;99.90;;;10.88;100.00;98084.38;4969577;28;20457;-79
2021/09/04 01:42:50;;;;;;;17.03;13.03;;;12.00;99.90;;;10.86;100.00;98089.97;4989907;28;20481;-79
2021/09/04 01:45:19;;;;;;;22.47;12.20;;;12.00;99.90;;;10.82;100.00;98086.06;4990377;28;20454;-78
2021/09/04 01:47:46;;;;;;;17.37;13.23;;;11.90;99.90;;;10.81;100.00;98083.56;4990052;28;20453;-79
2021/09/04 01:50:16;;;;;;;19.27;13.17;;;11.90;99.90;;;10.76;100.00;98082.34;4989859;28;20460;-79
2021/09/04 01:52:44;;;;;;;17.53;12.17;;;12.00;99.90;;;10.68;100.00;98071.75;4980450;28;20680;-79
2021/09/04 01:55:16;;;;;;;14.47;12.77;;;11.90;99.90;;;10.71;100.00;98076.75;4980683;28;20461;-79
2021/09/04 01:57:43;;;;;;;14.30;12.10;;;11.80;99.90;;;10.60;100.00;98072.03;4981604;28;20540;-79
2021/09/04 02:00:14;;;;;;;17.10;12.47;;;11.80;99.90;;;10.65;100.00;98069.50;4973871;28;20469;-79
2021/09/04 02:02:44;;;;;;;12.83;11.50;;;11.80;99.90;;;10.62;100.00;98073.47;4992231;28;20998;-79
2021/09/04 02:05:13;;;;;;;11.70;10.57;;;11.80;99.90;;;10.61;100.00;98062.88;4961788;28;20921;-79
2021/09/04 02:07:43;;;;;;;14.30;11.80;;;11.80;99.90;;;10.38;100.00;98041.75;4972148;28;20508;-79
2021/09/04 02:10:11;;;;;;;15.27;11.73;;;11.80;99.90;;;10.48;100.00;98059.19;4952339;28;20453;-79
2021/09/04 02:12:38;;;;;;;13.10;11.23;;;11.70;99.90;;;10.32;100.00;98057.75;4986046;28;20473;-79
2021/09/04 02:15:08;;;;;;;12.00;10.80;;;11.60;99.90;;;10.34;100.00;98058.38;4990765;28;20457;-79
2021/09/04 02:17:35;;;;;;;15.20;11.63;;;11.50;99.90;;;10.41;100.00;98063.78;4997481;28;20456;-79
2021/09/04 02:20:08;;;;;;;12.00;10.90;;;11.60;99.90;;;10.34;100.00;98035.94;4976885;28;20461;-79
2021/09/04 02:22:36;;;;;;;10.97;10.00;;;11.60;99.90;;;10.46;100.00;98060.41;4983385;28;20837;-79
2021/09/04 02:25:04;;;;;;;12.07;10.97;;;11.60;99.90;;;10.34;100.00;98057.53;4981116;28;20461;-79
2021/09/04 02:27:32;;;;;;;12.30;10.30;;;11.60;99.90;;;10.28;100.00;98050.28;4997447;28;20475;-79
2021/09/04 02:29:59;;;;;;;12.43;11.13;;;11.50;99.90;;;10.30;100.00;98067.09;4992672;28;20480;-79
2021/09/04 02:32:26;;;;;;;12.03;10.93;;;11.50;99.90;;;10.23;100.00;98066.28;4980515;28;20542;-79
2021/09/04 02:34:53;;;;;;;12.37;11.17;;;11.40;99.90;;;10.19;100.00;98063.19;4976614;28;20944;-79
2021/09/04 02:37:21;;;;;;;12.60;11.37;;;11.30;99.90;;;10.11;100.00;98056.16;4960301;28;20471;-79
2021/09/04 02:39:49;;;;;;;15.83;11.37;;;11.30;99.90;;;10.14;100.00;98061.13;4983172;28;20460;-79
2021/09/04 02:42:16;;;;;;;12.60;11.40;;;11.30;99.90;;;10.19;100.00;98061.31;4981393;28;20644;-79
2021/09/04 02:44:44;;;;;;;11.60;10.50;;;11.30;99.90;;;10.13;100.00;98056.78;4973955;28;20453;-79
2021/09/04 02:47:11;;;;;;;13.20;11.90;;;11.30;99.90;;;9.75;100.00;98016.97;4979200;28;20819;-79
2021/09/04 02:49:38;;;;;;;12.37;11.20;;;11.20;99.90;;;10.02;100.00;98071.75;4962064;28;20461;-79
2021/09/04 02:52:06;;;;;;;12.00;10.90;;;11.10;99.90;;;9.98;100.00;98061.59;4976767;28;20459;-78
2021/09/04 02:54:34;;;;;;;12.70;11.50;;;11.10;99.90;;;9.96;100.00;98069.06;4978311;28;20457;-78
2021/09/04 02:57:01;;;;;;;13.10;11.10;;;11.00;99.90;;;9.86;100.00;98035.22;4972131;28;20452;-79
2021/09/04 02:59:30;;;;;;;13.03;11.53;;;11.10;99.90;;;10.02;100.00;98060.13;4984448;28;20458;-78
2021/09/04 03:01:57;;;;;;;12.40;11.20;;;11.10;99.90;;;9.99;100.00;98065.94;4980643;28;20481;-79
2021/09/04 03:04:24;;;;;;;12.87;11.67;;;11.10;99.90;;;9.91;100.00;98064.28;4975735;28;20454;-79
2021/09/04 03:06:51;;;;;;;13.53;12.23;;;11.10;99.90;;;9.89;100.00;98071.78;4975933;28;20929;-79
2021/09/04 03:09:18;;;;;;;13.67;12.47;;;11.00;99.90;;;9.83;100.00;98067.19;4977790;28;20958;-79
2021/09/04 03:11:47;;;;;;;12.73;11.40;;;11.00;99.90;;;9.82;100.00;98066.38;4957042;28;20532;-79
2021/09/04 03:14:14;;;;;;;11.97;10.77;;;10.90;99.90;;;9.87;100.00;98057.66;4973111;28;20469;-79
2021/09/04 03:16:41;;;;;;;13.40;11.93;;;11.00;99.90;;;9.85;100.00;98060.56;4970493;28;20976;-78
2021/09/04 03:19:09;;;;;;;11.60;10.50;;;10.90;99.90;;;9.81;100.00;98056.63;4975489;28;20552;-80
2021/09/04 03:21:36;;;;;;;12.87;11.67;;;11.00;99.90;;;9.74;100.00;98064.72;4973540;28;20470;-79
2021/09/04 03:24:04;;;;;;;13.70;11.20;;;10.90;99.90;;;9.69;100.00;98061.81;4967122;28;21040;-79
2021/09/04 03:26:31;;;;;;;11.20;10.20;;;10.80;99.90;;;9.76;100.00;98054.56;4963935;28;21009;-79
2021/09/04 03:28:59;;;;;;;12.60;11.30;;;10.90;99.90;;;9.70;100.00;98063.47;4982714;28;20540;-79
2021/09/04 03:31:26;;;;;;;12.60;11.50;;;10.80;99.90;;;9.17;100.00;97976.16;4981040;28;20474;-79
2021/09/04 03:33:53;;;;;;;11.90;10.80;;;10.80;99.90;;;9.66;100.00;98059.53;4975308;28;21033;-79
2021/09/04 03:36:20;;;;;;;11.57;10.37;;;10.80;99.90;;;9.61;100.00;98060.16;4985707;28;20513;-79
2021/09/04 03:38:47;;;;;;;12.93;11.57;;;10.80;99.90;;;9.68;100.00;98060.16;4968182;28;20551;-79
2021/09/04 03:41:14;;;;;;;12.30;10.73;;;10.80;99.90;;;9.63;100.00;98060.81;4985525;28;20470;-79
2021/09/04 03:43:41;;;;;;;12.50;11.30;;;10.80;99.90;;;9.56;100.00;98049.16;4978262;28;20548;-79
2021/09/04 03:46:10;;;;;;;11.40;10.10;;;10.70;99.90;;;9.65;100.00;98057.88;4959885;28;20452;-79
2021/09/04 03:48:37;;;;;;;11.77;10.37;;;10.70;99.90;;;9.60;100.00;98058.50;4973951;28;20936;-79
2021/09/04 03:51:04;;;;;;;11.70;10.60;;;10.70;99.90;;;9.58;100.00;98054.38;4972650;28;20465;-79
2021/09/04 03:53:31;;;;;;;16.10;11.70;;;10.70;99.90;;;9.60;100.00;98054.97;4992237;28;20441;-79
2021/09/04 03:55:58;;;;;;;11.23;10.23;;;10.70;99.90;;;9.55;100.00;98058.31;4981395;28;20488;-78
2021/09/04 03:58:25;;;;;;;13.10;10.93;;;10.70;99.90;;;9.52;100.00;98058.72;4977516;28;20566;-79
2021/09/04 04:00:52;;;;;;;13.10;11.80;;;10.70;99.90;;;9.48;100.00;98054.78;4958693;28;20506;-78
2021/09/04 04:03:21;;;;;;;12.33;10.10;;;10.70;99.90;;;9.46;100.00;98054.13;4974559;28;20556;-78
2021/09/04 04:05:48;;;;;;;11.77;10.33;;;10.60;99.90;;;9.45;100.00;98061.41;4977433;28;20916;-79
2021/09/04 04:08:15;;;;;;;12.40;11.20;;;10.60;99.90;;;9.52;100.00;98064.13;4982150;28;20492;-78
2021/09/04 04:10:42;;;;;;;11.13;10.03;;;10.60;99.90;;;9.53;100.00;98046.91;4954111;28;20470;-79
2021/09/04 04:13:09;;;;;;;10.83;9.83;;;10.70;99.90;;;9.55;100.00;98061.00;4980342;28;20886;-78
2021/09/04 04:15:36;;;;;;;11.20;10.13;;;10.70;99.90;;;9.63;100.00;98057.25;4954236;28;20462;-78
2021/09/04 04:18:03;;;;;;;12.67;9.97;;;10.70;99.90;;;9.48;100.00;98049.41;4976079;28;20467;-78
2021/09/04 04:20:31;;;;;;;13.70;11.20;;;10.70;99.90;;;9.60;100.00;98063.06;4981282;28;20465;-79
2021/09/04 04:22:58;;;;;;;11.20;10.20;;;10.80;99.90;;;9.62;100.00;98061.00;4987001;28;20472;-79
2021/09/04 04:25:26;;;;;;;12.50;11.30;;;10.80;99.90;;;9.56;100.00;98068.03;4981683;28;20931;-79
2021/09/04 04:27:53;;;;;;;12.77;10.97;;;10.70;99.90;;;9.47;100.00;98063.88;4976095;28;20532;-79
2021/09/04 04:30:20;;;;;;;13.70;11.17;;;10.60;99.90;;;9.46;100.00;98063.06;4975044;28;20465;-77
2021/09/04 04:32:47;;;;;;;12.43;11.13;;;10.70;99.90;;;9.44;100.00;98056.22;4961920;28;20503;-78
2021/09/04 04:35:14;;;;;;;11.63;10.43;;;10.60;99.90;;;9.47;100.00;98064.72;4976171;28;20472;-78
2021/09/04 04:37:42;;;;;;;12.40;11.20;;;10.60;99.90;;;9.41;100.00;98048.53;4973051;28;20961;-78
2021/09/04 04:40:11;;;;;;;12.40;11.23;;;10.60;99.90;;;9.53;100.00;98062.22;4942215;28;20480;-78
2021/09/04 04:42:38;;;;;;;12.47;11.27;;;10.60;99.90;;;9.50;100.00;98058.91;4976443;28;20500;-77
2021/09/04 04:45:07;;;;;;;12.23;11.03;;;10.60;99.90;;;9.54;100.00;98051.25;4955294;28;20472;-78
2021/09/04 04:47:35;;;;;;;12.30;11.00;;;10.70;99.90;;;9.42;100.00;98023.25;4973913;28;21167;-78
2021/09/04 04:50:02;;;;;;;12.33;11.00;;;10.80;99.90;;;9.68;100.00;98067.44;4971816;28;21009;-78
2021/09/04 04:52:32;;;;;;;10.83;9.80;;;10.80;99.90;;;9.68;100.00;98076.34;4979690;28;20789;-78
2021/09/04 04:55:00;;;;;;;10.60;9.60;;;10.80;99.90;;;9.59;100.00;98056.03;4957222;28;20492;-80
2021/09/04 04:57:27;;;;;;;11.53;10.43;;;10.90;99.90;;;9.35;100.00;98029.47;4979416;28;20895;-80
2021/09/04 04:59:54;;;;;;;11.80;10.47;;;10.80;99.90;;;9.68;100.00;98072.81;4955007;28;20461;-79
2021/09/04 05:02:21;;;;;;;12.13;11.13;;;10.90;99.90;;;9.70;100.00;98074.25;4977333;28;20469;-80
2021/09/04 05:04:49;;;;;;;11.27;10.17;;;11.00;99.90;;;9.02;100.00;97965.59;4963673;28;20515;-80
2021/09/04 05:07:16;;;;;;;12.60;10.47;;;10.90;99.90;;;9.71;100.00;98075.94;4977691;28;20560;-80
2021/09/04 05:09:44;;;;;;;11.93;10.20;;;10.90;99.90;;;9.79;100.00;98069.50;4985568;28;20458;-80
2021/09/04 05:12:13;;;;;;;10.03;9.13;;;10.90;99.90;;;9.76;100.00;98067.19;4987250;28;20488;-80
2021/09/04 05:14:40;;;;;;;10.93;9.83;;;11.00;99.90;;;9.65;100.00;98044.38;4963298;28;20457;-80
2021/09/04 05:17:07;;;;;;;10.70;9.63;;;11.00;99.90;;;9.95;100.00;98075.50;4977895;28;20533;-80
2021/09/04 05:19:34;;;;;;;10.10;9.00;;;11.10;99.90;;;10.02;100.00;98074.44;4976679;28;20799;-80
2021/09/04 05:22:01;;;;;;;11.40;10.23;;;11.30;99.90;;;9.99;100.00;98066.75;4964856;28;20507;-80
2021/09/04 05:24:28;;;;;;;10.63;9.47;;;11.30;99.90;;;10.07;100.00;98076.50;4965759;28;20877;-80
2021/09/04 05:26:55;;;;;;;10.53;9.43;;;11.30;99.90;;;10.09;100.00;98085.25;4987651;28;20820;-80
2021/09/04 05:29:24;;;;;;;10.83;9.73;;;11.30;99.90;;;10.27;100.00;98089.16;4979922;28;20479;-80
2021/09/04 05:31:51;;;;;;;10.70;9.70;;;11.40;98.10;;;10.32;99.07;98084.78;4977828;28;20465;-80
2021/09/04 05:34:18;;;;;;;12.20;9.77;;;11.50;96.90;;;10.29;99.46;98084.34;4987929;28;20520;-80
2021/09/04 05:36:48;;;;;;;15.43;9.30;;;11.50;97.10;;;10.34;99.78;98088.09;4988230;28;20485;-80
2021/09/04 05:39:15;;;;;;;11.20;10.27;;;11.50;97.10;;;10.40;98.80;98082.88;4980874;28;20546;-80
2021/09/04 05:41:42;;;;;;;10.40;9.50;;;11.60;96.10;;;10.46;98.77;98096.38;4980119;28;20957;-80
2021/09/04 05:44:09;;;;;;;11.03;9.93;;;11.60;96.30;;;10.51;98.58;98092.19;4980273;28;20554;-80
2021/09/04 05:46:38;;;;;;;10.30;9.40;;;11.80;96.40;;;10.51;97.56;98076.84;4981923;28;20563;-80
2021/09/04 05:49:05;;;;;;;11.43;10.40;;;11.70;95.40;;;10.60;98.09;98088.22;4974836;28;20456;-80
2021/09/04 05:51:32;;;;;;;10.60;9.60;;;11.80;95.30;;;10.46;96.99;98053.16;4982907;28;20457;-80
2021/09/04 05:54:00;;;;;;;10.63;8.70;;;11.90;94.90;;;10.41;97.82;98052.13;4977164;28;20449;-80
2021/09/04 05:56:28;;;;;;;10.40;9.47;;;11.80;94.90;;;10.77;96.92;98075.88;4980090;28;20453;-80
2021/09/04 05:58:55;;;;;;;10.80;9.80;;;12.00;94.80;;;10.97;96.12;98079.53;4979547;28;20490;-80
2021/09/04 06:01:22;;;;;;;11.20;10.10;;;12.10;94.50;;;10.97;96.89;98082.25;4963044;28;20456;-80
2021/09/04 06:03:51;;;;;;;10.70;9.70;;;12.10;94.50;;;11.01;97.20;98083.47;4975133;28;20490;-80
2021/09/04 06:06:18;;;;;;;11.03;10.03;;;12.10;95.60;;;11.05;97.98;98074.69;4970384;28;20468;-80
2021/09/04 06:08:45;;;;;;;11.27;10.13;;;12.20;96.40;;;11.07;97.96;98060.97;4930106;28;1343597;-81
2021/09/04 06:11:13;;;;;;;10.80;9.80;;;12.30;95.80;;;11.17;97.90;98066.72;4970297;28;20320;-80
2021/09/04 06:13:40;;;;;;;12.40;11.20;;;12.40;95.90;;;11.34;98.34;98077.00;4978845;28;20493;-81
2021/09/04 06:16:07;;;;;;;11.30;10.20;;;12.50;96.30;;;11.46;98.02;98086.09;4985612;28;20473;-80
2021/09/04 06:18:34;;;;;;;12.57;11.07;;;12.60;96.20;;;11.62;97.66;98086.59;4977751;28;20464;-81
2021/09/04 06:21:03;;;;;;;12.30;11.17;;;12.70;96.00;;;11.72;96.97;98086.94;4963797;28;20505;-80
2021/09/04 06:23:30;;;;;;;10.60;9.60;;;12.90;95.00;;;11.89;97.27;98095.28;4949029;28;20469;-81
2021/09/04 06:25:57;;;;;;;12.00;10.80;;;13.00;95.30;;;12.24;93.16;98085.84;4982613;28;20452;-81
2021/09/04 06:28:28;;;;;;;11.57;10.47;;;13.20;92.00;;;12.32;92.35;98084.72;4984399;28;20465;-80
2021/09/04 06:30:55;;;;;;;12.57;11.30;;;13.40;91.50;;;12.35;92.24;98084.25;4963161;28;20557;-81
2021/09/04 06:33:24;;;;;;;11.60;10.50;;;13.50;91.50;;;12.46;92.45;98088.13;4989407;28;20505;-81
2021/09/04 06:35:52;;;;;;;11.43;10.33;;;13.60;91.40;;;12.72;90.85;98091.53;4982872;28;20482;-81
2021/09/04 06:38:21;;;;;;;10.83;9.83;;;13.80;90.50;;;12.68;91.51;98069.50;4990144;28;20456;-81
2021/09/04 06:40:48;;;;;;;13.67;11.90;;;13.90;90.80;;;12.74;90.49;98063.16;4983409;28;20459;-81
2021/09/04 06:43:15;;;;;;;10.60;9.70;;;14.00;90.10;;;12.97;91.04;98088.75;4992298;28;20496;-80
2021/09/04 06:45:44;;;;;;;11.97;10.87;;;14.20;90.50;;;13.17;89.50;98098.47;4985965;28;20489;-82
2021/09/04 06:48:12;;;;;;;10.83;9.83;;;14.20;89.40;;;13.34;87.32;98097.81;4965806;28;20454;-81
2021/09/04 06:50:38;;;;;;;12.60;11.40;;;14.30;87.40;;;13.37;87.15;98081.06;4978539;28;20924;-81
2021/09/04 06:53:06;;;;;;;10.60;9.70;;;14.50;87.20;;;13.26;87.49;98048.25;4969478;28;20512;-81
2021/09/04 06:55:34;;;;;;;11.30;10.20;;;14.50;87.20;;;13.69;85.73;98099.81;4985472;28;20613;-81
2021/09/04 06:58:01;;;;;;;11.23;10.23;;;14.70;86.00;;;13.74;85.82;98095.34;4984611;28;20457;-81
2021/09/04 07:00:29;;;;;;;18.40;9.67;;;14.80;85.60;;;13.76;83.62;98095.13;4985256;28;20457;-81
2021/09/04 07:02:56;;;;;;;9.90;8.60;;;14.90;83.90;;;14.01;82.97;98099.47;4983826;28;20477;-82
2021/09/04 07:05:23;;;;;;;13.03;10.40;;;15.00;82.90;;;13.93;82.28;98072.69;4991918;28;20464;-80
2021/09/04 07:07:52;;;;;;;10.47;9.43;;;15.10;82.20;;;14.12;82.31;98093.22;4983157;28;20473;-81
2021/09/04 07:10:19;;;;;;;16.00;10.33;;;15.10;81.90;;;14.27;82.27;98100.06;4990099;28;20484;-82
2021/09/04 07:12:48;;;;;;;10.37;9.27;;;15.30;82.00;;;14.29;81.21;98097.94;4986963;28;20493;-80
2021/09/04 07:15:16;;;;;;;11.40;10.13;;;15.40;80.90;;;14.35;80.67;98099.72;4987527;28;20465;-80
2021/09/04 07:17:45;;;;;;;11.13;10.03;;;15.50;80.80;;;14.45;80.74;98101.84;4985325;28;20457;-81
2021/09/04 07:20:13;;;;;;;10.40;9.00;;;15.50;80.70;;;14.55;81.55;98099.31;4983938;28;20479;-80
2021/09/04 07:22:40;;;;;;;10.33;9.17;;;15.60;81.10;;;14.80;79.84;98102.88;4973328;28;20469;-80
2021/09/04 07:25:10;;;;;;;10.23;9.23;;;15.80;80.00;;;14.82;79.51;98096.09;4985256;28;20485;-81
2021/09/04 07:27:38;;;;;;;9.90;8.93;;;15.90;79.60;;;14.95;78.36;98100.44;4973447;28;20500;-81
2021/09/04 07:30:08;;;;;;;12.20;10.40;;;16.00;78.40;;;14.94;78.10;98079.75;4961703;28;20459;-82
2021/09/04 07:32:35;;;;;;;10.50;9.07;;;16.10;78.40;;;15.25;77.68;98103.97;4987516;28;20527;-81
2021/09/04 07:35:02;;;;;;;10.30;9.50;;;16.20;78.10;;;15.26;76.34;98092.88;4975428;28;20484;-81
2021/09/04 07:37:30;;;;;;;10.17;9.27;;;16.40;77.20;;;15.45;76.56;98098.09;4967277;28;20489;-81
2021/09/04 07:39:57;;;;;;;8.93;8.23;;;16.40;76.80;;;15.61;75.54;98111.97;4974860;28;20464;-82
2021/09/04 07:42:26;;;;;;;9.63;8.73;;;16.50;76.10;;;15.69;74.38;98093.31;4964442;28;20441;-81
2021/09/04 07:44:53;;;;;;;8.93;8.13;;;16.70;74.90;;;15.74;73.60;98087.13;4983587;28;20461;-82
2021/09/04 07:47:22;;;;;;;9.20;8.27;;;16.80;74.40;;;15.99;73.42;98099.53;4980630;28;20570;-80
2021/09/04 07:49:49;;;;;;;8.60;7.80;;;17.00;74.10;;;16.16;73.08;98104.97;4978487;28;20458;-81
2021/09/04 07:52:17;;;;;;;9.30;8.40;;;17.00;73.40;;;16.39;71.94;98103.13;4958916;28;20465;-83
2021/09/04 07:54:45;;;;;;;9.53;8.63;;;17.30;73.00;;;16.42;72.12;98117.06;4977558;28;20538;-81
2021/09/04 07:57:12;;;;;;;9.67;8.87;;;17.40;72.70;;;16.53;71.13;98100.84;4966171;28;20497;-81
2021/09/04 07:59:39;;;;;;;11.23;10.20;;;17.50;72.00;;;16.73;69.92;98103.03;4980467;28;20525;-81
2021/09/04 08:02:07;;;;;;;10.80;9.90;;;17.60;71.20;;;16.82;68.57;98103.41;4960371;28;20492;-82
2021/09/04 08:04:36;;;;;;;12.67;10.53;;;17.70;70.10;;;16.88;68.45;98105.09;4974770;28;20489;-82
2021/09/04 08:07:03;;;;;;;12.00;10.80;;;17.80;69.30;;;17.01;67.96;98103.09;4960153;28;20508;-82
2021/09/04 08:09:31;;;;;;;11.33;10.13;;;17.90;69.00;;;17.11;67.29;98089.56;4966457;28;20470;-82
2021/09/04 08:11:58;;;;;;;10.57;9.57;;;18.10;69.00;;;17.31;67.73;98112.69;4976130;28;20556;-83
2021/09/04 08:14:25;;;;;;;11.00;9.97;;;18.20;68.90;;;17.40;66.57;98103.78;4975800;28;20552;-80
2021/09/04 08:16:52;;;;;;;11.60;10.40;;;18.20;67.80;;;17.48;65.42;98110.69;4970213;28;20959;-79
2021/09/04 08:19:19;;;;;;;14.27;10.90;;;18.40;67.00;;;17.49;65.74;98106.06;4977880;28;20489;-80
2021/09/04 08:21:48;;;;;;;11.33;10.23;;;18.40;66.90;;;17.59;64.29;98102.59;4970220;28;20458;-82
2021/09/04 08:24:15;;;;;;;12.80;10.70;;;18.50;66.00;;;17.67;64.93;98102.13;4971191;28;20477;-81
2021/09/04 08:26:43;;;;;;;13.37;11.77;;;18.60;66.10;;;17.79;64.92;98099.22;4954363;28;20813;-81
2021/09/04 08:29:11;;;;;;;11.93;10.93;;;18.70;66.10;;;17.93;65.03;98110.53;4985518;28;20476;-81
2021/09/04 08:31:38;;;;;;;13.30;11.90;;;18.80;66.50;;;17.95;63.87;98102.88;4993307;28;20479;-81
2021/09/04 08:34:05;;;;;;;14.17;11.67;;;18.90;65.60;;;18.16;63.35;98114.00;4988257;28;20449;-82
2021/09/04 08:36:32;;;;;;;11.57;10.37;;;19.00;64.90;;;18.17;63.18;98104.72;4971501;28;20447;-82
2021/09/04 08:39:01;;;;;;;11.80;10.80;;;19.10;64.80;;;18.34;62.47;98107.28;4977253;28;20525;-82
2021/09/04 08:41:28;;;;;;;11.90;9.47;;;19.20;64.20;;;18.44;62.04;98112.81;4979580;28;20480;-82
2021/09/04 08:43:56;;;;;;;9.20;8.00;;;19.30;64.00;;;18.44;60.63;98114.75;4947515;28;20477;-82
2021/09/04 08:46:24;;;;;;;9.00;8.20;;;19.30;62.70;;;18.38;61.28;98100.22;4983668;28;20535;-81
2021/09/04 08:48:54;;;;;;;9.57;8.67;;;19.40;63.00;;;18.61;61.16;98114.53;4977650;28;20507;-81
2021/09/04 08:51:21;;;;;;;8.80;8.07;;;19.50;63.20;;;18.67;60.98;98110.75;4979520;28;20480;-82
2021/09/04 08:53:48;;;;;;;13.03;8.23;;;19.50;62.80;;;18.82;60.72;98120.94;4981844;28;20492;-83
2021/09/04 08:56:16;;;;;;;7.40;6.80;;;19.60;62.90;;;18.94;59.66;98124.28;4988622;28;20458;-82
2021/09/04 08:58:43;;;;;;;7.93;7.20;;;19.70;62.10;;;19.00;59.19;98114.19;4990078;28;20456;-82
2021/09/04 09:01:18;;;;;;;7.47;6.83;;;19.80;61.80;;;19.06;59.10;98115.84;4987915;28;20472;-81
2021/09/04 09:03:49;;;;;;;9.97;7.40;;;19.90;61.60;;;19.22;58.61;98114.00;4982733;28;20469;-80
2021/09/04 09:06:26;;;;;;;7.83;7.10;;;20.10;61.40;;;19.22;59.38;98114.00;4978207;28;20534;-81
2021/09/04 09:08:53;;;;;;;7.90;7.20;;;20.10;61.80;;;19.45;57.51;98111.84;4959437;28;20478;-82
2021/09/04 09:11:23;;;;;;;7.17;6.47;;;20.20;60.90;;;19.50;57.05;98087.22;4971778;28;20841;-81
2021/09/04 09:13:53;;;;;;;6.77;6.10;;;20.40;60.60;;;19.63;57.39;98101.44;4982633;28;20457;-80
2021/09/04 09:16:24;;;;;;;7.43;6.43;;;20.50;60.50;;;19.73;56.99;98100.66;4978832;28;20492;-81
2021/09/04 09:18:59;;;;;;;6.70;6.17;;;20.60;60.30;;;19.86;56.71;98110.22;4988277;28;20519;-81
2021/09/04 09:21:31;;;;;;;7.63;6.93;;;20.70;60.20;;;20.05;56.42;98105.84;4982216;28;20980;-82
2021/09/04 09:24:12;;;;;;;6.90;6.27;;;20.80;60.20;;;20.12;55.36;98097.34;4978660;28;20847;-82
2021/09/04 09:26:57;;;;;;;6.67;6.07;;;21.00;59.60;;;20.06;54.63;98073.78;4984437;28;20460;-83
2021/09/04 09:29:30;;;;;;;6.20;5.60;;;21.10;59.00;;;20.26;54.46;98102.28;4982356;28;20966;-83
2021/09/04 09:32:04;;;;;;;6.33;5.73;;;21.10;58.90;;;20.43;55.12;98101.97;4963175;28;20528;-82
2021/09/04 09:34:36;;;;;;;7.73;6.20;;;21.20;59.20;;;20.25;53.92;98093.25;4979884;28;20996;-83
2021/09/04 09:37:06;;;;;;;6.50;5.90;;;21.20;58.30;;;20.24;54.91;98094.31;4977105;28;20536;-83
2021/09/04 09:39:36;;;;;;;7.00;6.40;;;21.10;58.80;;;20.16;55.06;98067.47;4957974;28;20471;-83
2021/09/04 09:42:08;;;;;;;6.60;6.00;;;21.20;58.80;;;20.50;54.74;98086.84;4973897;28;20557;-82
2021/09/04 09:44:37;;;;;;;6.80;6.20;;;21.30;58.90;;;20.58;54.95;98092.88;4974943;28;20481;-83
2021/09/04 09:47:06;;;;;;;8.87;6.20;;;21.40;59.10;;;20.78;54.31;98091.97;4978297;28;20457;-83
2021/09/04 09:49:38;;;;;;;6.17;5.57;;;21.50;58.90;;;20.93;53.56;98086.44;4966833;28;20469;-84
2021/09/04 09:52:09;;;;;;;6.67;6.07;;;21.70;59.00;;;21.01;54.12;98093.25;4965112;28;20524;-83
2021/09/04 09:54:37;;;;;;;7.20;6.60;;;21.80;58.90;;;21.20;53.57;98087.94;4985274;28;20452;-83
2021/09/04 09:57:08;;;;;;;6.27;5.73;;;21.90;58.80;;;21.40;52.33;98091.66;4986123;28;20481;-81
2021/09/04 09:59:40;;;;;;;6.40;5.90;;;22.10;58.20;;;21.22;52.92;98088.47;4991873;28;20456;-80
2021/09/04 10:02:10;;;;;;;7.23;6.60;;;22.00;58.10;;;21.13;52.51;98075.63;4969363;28;20454;-81
2021/09/04 10:04:39;;;;;;;6.77;6.17;;;22.00;57.90;;;21.23;53.52;98081.88;4982000;28;20523;-80
2021/09/04 10:07:09;;;;;;;6.47;6.00;;;22.00;58.40;;;21.46;53.20;98085.06;4980756;28;20454;-78
2021/09/04 10:09:39;;;;;;;7.53;6.00;;;22.20;58.40;;;21.51;52.45;98068.50;4975098;28;21035;-77
2021/09/04 10:12:08;;;;;;;6.27;5.77;;;22.40;58.10;;;21.77;51.36;98084.84;4969834;28;20462;-77